Time;durP1;ratioP1;P1;durP2;ratioP2;P2;SDS_P1;SDS_P2;PMS_P1;PMS_P2;Temp;Humidity;BMP_temperature;BMP_pressure;BME280_temperature;BME280_humidity;BME280_pressure;Samples;Min_cycle;Max_cycle;Signal;HPM_P1;HPM_P2
2021/04/16 00:00:48;;;;;;;5.40;2.60;;;0.60;99.90;;;;;;5007734;28;20463;-87
2021/04/16 00:03:15;;;;;;;3.60;2.73;;;;;;;;;;5032384;28;20475;-87
2021/04/16 00:05:42;;;;;;;4.10;3.20;;;;;;;;;;5033282;28;20495;-88
2021/04/16 00:08:10;;;;;;;6.37;3.63;;;0.50;99.90;;;;;;5034048;28;20451;-88
2021/04/16 00:10:41;;;;;;;3.40;2.63;;;0.60;99.90;;;;;;5033663;28;20467;-87
2021/04/16 00:13:08;;;;;;;2.90;2.60;;;;;;;;;;5024774;28;20470;-88
2021/04/16 00:15:38;;;;;;;2.67;2.40;;;0.50;99.90;;;;;;5033932;28;21017;-87
2021/04/16 00:18:06;;;;;;;5.37;3.13;;;0.40;99.90;;;;;;5033946;28;20455;-88
2021/04/16 00:20:33;;;;;;;3.40;2.77;;;;;;;;;;5032866;28;20450;-88
2021/04/16 00:22:59;;;;;;;4.83;3.23;;;;;;;;;;5033323;28;20452;-88
2021/04/16 00:25:29;;;;;;;3.70;3.20;;;0.40;99.90;;;;;;5034178;28;20458;-88
2021/04/16 00:27:56;;;;;;;3.40;2.80;;;;;;;;;;5034048;28;20524;-88
2021/04/16 00:30:25;;;;;;;7.03;3.20;;;0.40;99.90;;;;;;5030071;28;20447;-88
2021/04/16 00:32:52;;;;;;;6.03;2.93;;;;;;;;;;5033929;28;20456;-89
2021/04/16 00:35:19;;;;;;;3.50;2.87;;;0.30;99.90;;;;;;5033005;28;20803;-89
2021/04/16 00:37:46;;;;;;;4.87;2.93;;;;;;;;;;5033962;28;20952;-87
2021/04/16 00:40:15;;;;;;;3.60;2.80;;;0.20;99.90;;;;;;5034043;28;20455;-88
2021/04/16 00:42:42;;;;;;;4.13;2.73;;;;;;;;;;5033945;28;20447;-88
2021/04/16 00:45:09;;;;;;;4.63;3.00;;;0.20;99.90;;;;;;5033186;28;20462;-85
2021/04/16 00:47:36;;;;;;;4.03;2.87;;;;;;;;;;5033899;28;20447;-87
2021/04/16 00:50:10;;;;;;;4.40;2.73;;;0.20;99.90;;;;;;5032769;28;20444;-87
2021/04/16 00:52:37;;;;;;;5.60;2.97;;;0.20;99.90;;;;;;5033598;28;20436;-86
2021/04/16 00:55:07;;;;;;;5.00;3.00;;;-0.10;99.90;;;;;;5033749;28;20440;-87
2021/04/16 00:57:34;;;;;;;5.37;3.33;;;;;;;;;;5033619;28;20451;-86
2021/04/16 01:00:01;;;;;;;5.00;3.33;;;0.00;99.90;;;;;;5030657;28;20463;-89
2021/04/16 01:02:28;;;;;;;5.90;3.47;;;;;;;;;;5030723;28;20517;-87
2021/04/16 01:04:55;;;;;;;4.13;3.10;;;;;;;;;;5032292;28;20452;-87
2021/04/16 01:07:21;;;;;;;4.57;2.50;;;0.00;99.90;;;;;;5033232;28;20495;-87
2021/04/16 01:09:50;;;;;;;3.93;3.17;;;0.00;99.90;;;;;;5030125;28;20642;-87
2021/04/16 01:12:18;;;;;;;6.73;3.10;;;0.00;99.90;;;;;;5033500;28;20452;-88
2021/04/16 01:14:46;;;;;;;3.40;2.93;;;-0.20;99.90;;;;;;5033404;28;20448;-87
2021/04/16 01:17:15;;;;;;;6.50;3.10;;;-0.10;99.90;;;;;;5033043;28;20459;-86
2021/04/16 01:19:47;;;;;;;4.90;3.13;;;-0.10;99.90;;;;;;5032182;28;20819;-87
2021/04/16 01:22:20;;;;;;;3.10;2.73;;;-0.20;99.90;;;;;;5032872;28;20967;-87
2021/04/16 01:24:48;;;;;;;3.10;2.80;;;-0.60;99.90;;;;;;5033051;28;20448;-87
2021/04/16 01:27:14;;;;;;;3.80;2.80;;;;;;;;;;5032684;28;20532;-86
2021/04/16 01:29:43;;;;;;;3.27;2.40;;;-0.20;99.90;;;;;;5030136;28;20536;-87
2021/04/16 01:32:13;;;;;;;3.73;2.73;;;-0.20;99.90;;;;;;5032942;28;20455;-88
2021/04/16 01:34:40;;;;;;;3.60;2.80;;;-0.20;99.90;;;;;;5031720;28;20462;-86
2021/04/16 01:37:06;;;;;;;3.27;2.73;;;;;;;;;;5032809;28;20447;-87
2021/04/16 01:39:33;;;;;;;5.13;2.90;;;-0.30;99.90;;;;;;5032734;28;20448;-87
2021/04/16 01:42:01;;;;;;;3.87;2.70;;;-0.40;99.90;;;;;;5032708;28;20482;-88
2021/04/16 01:44:29;;;;;;;4.90;3.20;;;-0.30;99.90;;;;;;5032907;28;20443;-86
2021/04/16 01:46:58;;;;;;;3.70;3.20;;;-0.30;99.90;;;;;;5032940;28;20522;-87
2021/04/16 01:49:25;;;;;;;3.90;3.00;;;-0.40;99.90;;;;;;5031424;28;20463;-87
2021/04/16 01:51:53;;;;;;;4.90;3.63;;;-0.30;99.90;;;;;;5032593;28;20451;-87
2021/04/16 01:54:22;;;;;;;5.40;2.93;;;-0.20;99.90;;;;;;5032557;28;20455;-87
2021/04/16 01:56:50;;;;;;;4.20;2.83;;;-0.30;99.90;;;;;;5032699;28;20454;-87
2021/04/16 01:59:21;;;;;;;3.07;2.80;;;-0.30;99.90;;;;;;5032697;28;20517;-86
2021/04/16 02:01:47;;;;;;;5.27;3.00;;;;;;;;;;5032304;28;20447;-87
2021/04/16 02:04:15;;;;;;;4.07;2.77;;;-0.30;99.90;;;;;;5028502;28;20477;-85
2021/04/16 02:06:41;;;;;;;5.73;3.63;;;-0.90;99.90;;;;;;5029380;28;20494;-87
2021/04/16 02:09:09;;;;;;;3.87;2.87;;;;;;;;;;5032430;28;20455;-87
2021/04/16 02:11:37;;;;;;;4.17;2.73;;;-0.30;99.90;;;;;;5032290;28;20444;-87
2021/04/16 02:14:04;;;;;;;4.30;2.63;;;-0.40;99.90;;;;;;5032615;28;20463;-87
2021/04/16 02:16:32;;;;;;;4.13;3.03;;;-0.40;99.90;;;;;;5025840;28;20463;-87
2021/04/16 02:18:59;;;;;;;4.63;3.03;;;;;;;;;;5026038;28;20505;-89
2021/04/16 02:21:25;;;;;;;4.27;2.80;;;;;;;;;;5032276;28;20447;-86
2021/04/16 02:23:52;;;;;;;2.83;2.57;;;;;;;;;;5032387;28;20450;-87
2021/04/16 02:26:19;;;;;;;3.67;3.10;;;;;;;;;;5032392;28;20487;-87
2021/04/16 02:28:45;;;;;;;3.80;3.10;;;;;;;;;;5031999;28;20491;-87
2021/04/16 02:31:12;;;;;;;3.07;2.77;;;;;;;;;;5029168;28;20471;-87
2021/04/16 02:33:39;;;;;;;4.63;3.07;;;-0.50;99.90;;;;;;5031087;28;20459;-88
2021/04/16 02:36:08;;;;;;;4.23;3.03;;;-0.60;99.90;;;;;;5032134;28;20460;-88
2021/04/16 02:38:34;;;;;;;5.63;3.27;;;;;;;;;;5032242;28;20450;-88
2021/04/16 02:41:01;;;;;;;3.90;2.60;;;;;;;;;;5032335;28;20485;-88
2021/04/16 02:43:27;;;;;;;3.33;2.33;;;;;;;;;;5031997;28;20451;-86
2021/04/16 02:45:54;;;;;;;4.07;2.57;;;;;;;;;;5032094;28;20475;-86
2021/04/16 02:48:21;;;;;;;3.73;2.50;;;;;;;;;;5025236;28;20985;-86
2021/04/16 02:50:48;;;;;;;3.40;2.70;;;-0.50;99.90;;;;;;5031943;28;20451;-89
2021/04/16 02:53:15;;;;;;;5.57;2.63;;;;;;;;;;5031945;28;20447;-87
2021/04/16 02:55:41;;;;;;;9.10;3.60;;;;;;;;;;5031928;28;20464;-86
2021/04/16 02:58:09;;;;;;;6.73;2.77;;;-0.50;99.90;;;;;;5032320;28;20774;-87
2021/04/16 03:00:36;;;;;;;2.83;2.50;;;-0.40;99.90;;;;;;5031971;28;20457;-86
2021/04/16 03:03:02;;;;;;;3.13;2.47;;;;;;;;;;5031969;28;20457;-87
2021/04/16 03:05:29;;;;;;;9.87;2.90;;;;;;;;;;5030749;28;20446;-86
2021/04/16 03:07:56;;;;;;;5.00;3.33;;;-0.70;99.90;;;;;;5032824;28;20462;-88
2021/04/16 03:10:25;;;;;;;7.10;3.67;;;-0.90;99.90;;;;;;5030221;28;20473;-87
2021/04/16 03:12:51;;;;;;;6.03;2.80;;;;;;;;;;5035358;28;20471;-88
2021/04/16 03:15:18;;;;;;;3.40;2.97;;;;;;;;;;5035673;28;20954;-87
2021/04/16 03:17:45;;;;;;;4.23;2.93;;;;;;;;;;5035589;28;20532;-87
2021/04/16 03:20:13;;;;;;;3.87;3.30;;;-0.40;99.90;;;;;;5034289;28;20999;-87
2021/04/16 03:22:39;;;;;;;4.67;3.30;;;;;;;;;;5035472;28;20454;-87
2021/04/16 03:25:09;;;;;;;5.77;3.40;;;-0.80;99.90;;;;;;5035260;28;20458;-87
2021/04/16 03:27:36;;;;;;;3.87;2.70;;;-0.70;99.90;;;;;;5035119;28;20533;-87
2021/04/16 03:30:04;;;;;;;5.10;3.30;;;-1.10;99.90;;;;;;5035300;28;20447;-87
2021/04/16 03:32:31;;;;;;;4.03;3.40;;;;;;;;;;5035220;28;20525;-88
2021/04/16 03:34:57;;;;;;;5.00;3.03;;;;;;;;;;5034108;28;20514;-88
2021/04/16 03:37:24;;;;;;;4.30;2.80;;;;;;;;;;5034989;28;20752;-88
2021/04/16 03:39:50;;;;;;;6.00;3.60;;;;;;;;;;5032092;28;20521;-88
2021/04/16 03:42:18;;;;;;;7.83;3.30;;;-0.80;99.90;;;;;;5035011;28;20451;-86
2021/04/16 03:44:45;;;;;;;4.13;3.20;;;-1.20;99.90;;;;;;5035007;28;20831;-86
2021/04/16 03:47:13;;;;;;;5.20;2.90;;;-1.40;99.90;;;;;;5016921;28;20554;-87
2021/04/16 03:49:39;;;;;;;5.73;3.50;;;;;;;;;;4997287;28;20952;-89
2021/04/16 03:52:08;;;;;;;3.30;3.00;;;-1.10;99.90;;;;;;5003414;28;20461;-89
2021/04/16 03:54:35;;;;;;;4.00;3.60;;;-0.70;99.90;;;;;;5002345;28;20924;-88
2021/04/16 03:57:07;;;;;;;3.87;3.10;;;-0.80;99.90;;;;;;5005106;28;20549;-89
2021/04/16 03:59:35;;;;;;;4.20;3.60;;;-0.90;99.90;;;;;;5006523;28;20456;-89
2021/04/16 04:02:05;;;;;;;2.97;2.60;;;-1.10;99.90;;;;;;5004680;28;20951;-88
2021/04/16 04:04:40;;;;;;;4.87;3.37;;;-1.00;99.90;;;;;;5004546;28;20452;-89
2021/04/16 04:07:09;;;;;;;4.13;3.10;;;;;;;;;;5005632;28;20497;-88
2021/04/16 04:09:36;;;;;;;4.20;3.57;;;-1.50;99.90;;;;;;5005754;28;21025;-88
2021/04/16 04:12:05;;;;;;;3.80;2.90;;;-1.20;99.90;;;;;;5007606;28;20899;-89
2021/04/16 04:14:32;;;;;;;3.57;2.97;;;-1.10;99.90;;;;;;5000525;28;20945;-87
2021/04/16 04:17:01;;;;;;;5.10;3.83;;;-1.10;99.90;;;;;;5009089;28;20443;-89
2021/04/16 04:19:29;;;;;;;6.70;3.20;;;-1.00;99.90;;;;;;5012358;28;20455;-90
2021/04/16 04:21:57;;;;;;;4.03;2.83;;;-1.10;99.90;;;;;;5005587;28;20952;-89
2021/04/16 04:24:24;;;;;;;4.57;3.10;;;-1.00;99.90;;;;;;5005735;28;20901;-86
2021/04/16 04:26:50;;;;;;;4.67;3.73;;;-1.30;99.90;;;;;;5002629;28;20543;-87
2021/04/16 04:29:21;;;;;;;2.90;2.60;;;-1.90;99.90;;;;;;5006008;28;20926;-88
2021/04/16 04:31:48;;;;;;;4.47;3.70;;;-0.90;99.90;;;;;;5004085;28;20446;-88
2021/04/16 04:34:19;;;;;;;5.07;3.43;;;-1.30;99.90;;;;;;5004104;28;20441;-89
2021/04/16 04:36:50;;;;;;;3.50;3.03;;;-1.60;99.90;;;;;;5005506;28;20448;-87
2021/04/16 04:39:17;;;;;;;4.67;3.50;;;-1.60;99.90;;;;;;4994829;28;20450;-89
2021/04/16 04:41:44;;;;;;;5.53;3.83;;;;;;;;;;4997215;28;20499;-87
2021/04/16 04:44:14;;;;;;;5.40;3.47;;;-1.20;99.90;;;;;;5003366;28;20997;-88
2021/04/16 04:46:41;;;;;;;6.53;3.63;;;-1.10;99.90;;;;;;5002449;28;20484;-87
2021/04/16 04:49:10;;;;;;;5.20;3.50;;;-1.10;99.90;;;;;;5004527;28;20440;-88
2021/04/16 04:51:41;;;;;;;4.27;3.30;;;-1.20;99.90;;;;;;5000596;28;20479;-86
2021/04/16 04:54:10;;;;;;;4.33;3.40;;;-1.20;99.90;;;;;;5008805;28;20457;-89
2021/04/16 04:56:37;;;;;;;4.57;3.60;;;-1.00;99.90;;;;;;5002842;28;20999;-87
2021/04/16 04:59:04;;;;;;;6.17;3.50;;;-0.90;99.90;;;;;;5005352;28;20440;-88
2021/04/16 05:01:45;;;;;;;4.00;3.33;;;-1.10;99.90;;;;;;5005230;28;20444;-87
2021/04/16 05:04:11;;;;;;;5.33;3.23;;;;;;;;;;5010819;28;20448;-87
2021/04/16 05:06:39;;;;;;;3.57;2.93;;;-0.90;99.90;;;;;;5013628;28;20503;-89
2021/04/16 05:09:05;;;;;;;5.67;3.70;;;-1.00;99.90;;;;;;5013858;28;20471;-87
2021/04/16 05:11:32;;;;;;;3.57;3.07;;;;;;;;;;5008641;28;20448;-86
2021/04/16 05:13:58;;;;;;;6.20;4.00;;;-0.70;99.90;;;;;;5011015;28;20472;-87
2021/04/16 05:16:25;;;;;;;5.20;3.63;;;;;;;;;;5010783;28;20464;-88
2021/04/16 05:18:53;;;;;;;3.93;3.43;;;-0.70;99.90;;;;;;5010168;28;20463;-87
2021/04/16 05:21:19;;;;;;;4.37;3.13;;;-0.50;99.90;;;;;;5013682;28;20471;-88
2021/04/16 05:23:47;;;;;;;4.40;3.70;;;-1.60;99.90;;;;;;5013819;28;20452;-86
2021/04/16 05:26:13;;;;;;;5.53;3.97;;;;;;;;;;5013696;28;20550;-90
2021/04/16 05:28:39;;;;;;;6.33;5.00;;;-0.40;99.90;;;;;;5013662;28;20485;-87
2021/04/16 05:31:06;;;;;;;5.30;4.27;;;;;;;;;;5013101;28;20860;-89
2021/04/16 05:33:32;;;;;;;8.03;5.17;;;0.10;99.90;;;;;;5012486;28;20460;-89
2021/04/16 05:35:59;;;;;;;7.80;5.50;;;0.00;99.90;;;;;;5013481;28;20464;-88
2021/04/16 05:38:25;;;;;;;8.03;5.50;;;;;;;;;;5009274;28;20816;-87
2021/04/16 05:40:53;;;;;;;7.57;5.80;;;1.00;99.90;;;;;;5014135;28;20458;-89
2021/04/16 05:43:19;;;;;;;8.50;5.33;;;;;;;;;;5014607;28;20452;-89
2021/04/16 05:45:46;;;;;;;6.33;4.80;;;;;;;;;;5011246;28;20502;-91
2021/04/16 05:48:12;;;;;;;6.73;4.60;;;;;;;;;;5014776;28;20511;-89
2021/04/16 05:50:39;;;;;;;4.87;4.37;;;2.40;99.90;;;;;;5013510;28;20534;-89
2021/04/16 05:53:05;;;;;;;4.03;3.70;;;2.40;99.90;;;;;;5010537;28;20452;-90
2021/04/16 05:55:31;;;;;;;4.90;4.20;;;4.60;99.90;;;;;;5014333;28;20499;-90
2021/04/16 05:57:59;;;;;;;4.90;4.03;;;1.90;99.90;;;;;;5013491;28;20456;-90
2021/04/16 06:00:26;;;;;;;6.97;4.60;;;;;;;;;;5013645;28;20451;-89
2021/04/16 06:02:53;;;;;;;4.17;3.40;;;2.10;99.90;;;;;;5014018;28;20451;-90
2021/04/16 06:05:21;;;;;;;4.90;4.07;;;2.00;99.90;;;;;;5008606;28;20944;-90
2021/04/16 06:07:49;;;;;;;4.87;4.00;;;;;;;;;;5014656;28;20485;-89
2021/04/16 06:10:17;;;;;;;5.47;4.10;;;1.90;99.90;;;;;;5014793;28;20805;-90
2021/04/16 06:12:44;;;;;;;5.37;4.17;;;1.80;99.90;;;;;;5014398;28;20444;-89
2021/04/16 06:15:14;;;;;;;6.47;4.53;;;1.80;99.90;;;;;;5014560;28;20456;-90
2021/04/16 06:17:41;;;;;;;6.63;4.20;;;;;;;;;;5013926;28;20440;-89
2021/04/16 06:20:09;;;;;;;8.07;4.70;;;1.80;99.90;;;;;;5012925;28;20468;-89
2021/04/16 06:22:36;;;;;;;4.03;3.70;;;1.90;99.90;;;;;;5014223;28;20508;-88
2021/04/16 06:25:03;;;;;;;5.00;4.10;;;2.10;99.90;;;;;;5013094;28;20452;-88
2021/04/16 06:27:30;;;;;;;5.63;4.57;;;1.70;99.90;;;;;;5013000;28;20522;-88
2021/04/16 06:29:56;;;;;;;6.17;4.90;;;;;;;;;;5010603;28;20468;-87
2021/04/16 06:32:24;;;;;;;4.53;4.07;;;2.00;99.90;;;;;;5012786;28;20558;-88
2021/04/16 06:34:51;;;;;;;5.13;4.50;;;;;;;;;;5011811;28;20848;-87
2021/04/16 06:37:17;;;;;;;5.30;4.20;;;;;;;;;;5012953;28;20456;-88
2021/04/16 06:39:45;;;;;;;11.33;4.33;;;2.20;99.90;;;;;;5013295;28;20451;-88
2021/04/16 06:42:17;;;;;;;7.50;4.63;;;2.40;99.90;;;;;;5012776;28;20452;-89
2021/04/16 06:44:47;;;;;;;7.43;4.50;;;2.50;99.90;;;;;;5012500;28;20440;-87
2021/04/16 06:47:18;;;;;;;6.43;4.47;;;2.70;99.90;;;;;;5007748;28;20488;-89
2021/04/16 06:49:46;;;;;;;9.53;4.97;;;2.70;99.90;;;;;;5015711;28;20455;-89
2021/04/16 06:52:16;;;;;;;5.90;4.73;;;3.10;99.90;;;;;;5017539;28;20448;-89
2021/04/16 06:54:51;;;;;;;5.83;5.23;;;3.30;99.90;;;;;;5016741;28;20456;-89
2021/04/16 06:57:25;;;;;;;11.00;5.73;;;3.20;99.90;;;;;;5016940;28;20455;-88
2021/04/16 06:59:59;;;;;;;6.77;4.90;;;3.10;99.90;;;;;;5013846;28;20558;-90
2021/04/16 07:02:34;;;;;;;6.23;4.90;;;3.60;99.90;;;;;;5011723;28;20456;-89
2021/04/16 07:05:04;;;;;;;5.37;4.97;;;4.60;99.90;;;;;;5015395;28;20447;-90
2021/04/16 07:07:36;;;;;;;4.60;4.20;;;3.40;99.90;;;;;;5018190;28;20586;-89
2021/04/16 07:10:07;;;;;;;5.53;4.93;;;2.90;99.90;;;;;;5018140;28;20459;-89
2021/04/16 07:12:33;;;;;;;6.87;4.30;;;3.40;99.90;;;;;;5017889;28;20445;-90
2021/04/16 07:15:07;;;;;;;6.00;4.83;;;3.70;99.90;;;;;;5020455;28;20460;-89
2021/04/16 07:17:38;;;;;;;5.20;4.70;;;3.70;99.90;;;;;;5020531;28;20450;-90
2021/04/16 07:20:08;;;;;;;5.17;4.57;;;3.70;99.90;;;;;;5020736;28;20820;-90
2021/04/16 07:22:40;;;;;;;5.20;4.70;;;3.80;99.90;;;;;;5017877;28;20444;-89
2021/04/16 07:25:21;;;;;;;4.87;4.37;;;3.80;99.90;;;;;;5014571;28;20444;-90
2021/04/16 07:27:49;;;;;;;7.30;4.80;;;3.90;99.90;;;;;;5012595;28;21313;-89
2021/04/16 07:30:33;;;;;;;4.77;4.37;;;3.70;99.90;;;;;;5010999;28;20846;-88
2021/04/16 07:33:00;;;;;;;6.17;4.40;;;3.90;99.90;;;;;;5011442;28;20555;-89
2021/04/16 07:35:30;;;;;;;9.70;4.60;;;4.10;99.90;;;;;;5015394;28;20810;-90
2021/04/16 07:38:12;;;;;;;5.50;4.90;;;4.20;99.90;;;;;;5015553;28;20456;-87
2021/04/16 07:40:41;;;;;;;5.33;4.83;;;4.70;99.90;;;;;;5015551;28;20484;-86
2021/04/16 07:43:08;;;;;;;5.20;4.70;;;5.10;99.90;;;;;;5009928;28;20460;-86
2021/04/16 07:45:39;;;;;;;6.50;4.97;;;5.90;99.90;;;;;;4999088;28;21046;-86
2021/04/16 07:48:29;;;;;;;7.03;4.70;;;6.00;99.90;;;;;;4995661;28;20555;-88
2021/04/16 07:50:58;;;;;;;5.17;4.67;;;5.60;99.90;;;;;;4996321;28;20485;-86
2021/04/16 07:53:28;;;;;;;6.43;4.67;;;5.30;99.90;;;;;;4995804;28;20460;-87
2021/04/16 07:56:17;;;;;;;5.53;5.03;;;6.00;99.90;;;;;;4995436;28;20453;-86
2021/04/16 07:58:45;;;;;;;10.00;4.93;;;7.00;99.90;;;;;;4995332;28;20949;-86
2021/04/16 08:01:30;;;;;;;5.10;4.60;;;7.70;99.90;;;;;;4995533;28;20876;-85
2021/04/16 08:03:59;;;;;;;5.90;5.40;;;6.10;99.90;;;;;;4994365;28;20457;-85
2021/04/16 08:06:35;;;;;;;5.80;5.10;;;5.30;99.90;;;;;;4994946;28;20496;-86
2021/04/16 08:09:03;;;;;;;5.17;4.60;;;5.30;99.90;;;;;;4995172;28;20453;-86
2021/04/16 08:11:33;;;;;;;6.50;4.93;;;4.90;99.90;;;;;;4995037;28;20454;-86
2021/04/16 08:14:03;;;;;;;4.90;4.50;;;4.70;99.90;;;;;;4995331;28;20456;-90
2021/04/16 08:16:32;;;;;;;5.23;4.73;;;5.00;99.90;;;;;;4997870;28;20524;-91
2021/04/16 08:19:14;;;;;;;5.07;4.57;;;5.00;99.90;;;;;;4990683;28;20449;-87
2021/04/16 08:21:46;;;;;;;8.40;5.53;;;4.60;99.90;;;;;;4993170;28;20457;-90
2021/04/16 08:24:26;;;;;;;6.43;4.90;;;4.90;99.90;;;;;;4997375;28;20449;-87
2021/04/16 08:27:05;;;;;;;5.80;4.90;;;5.00;99.90;;;;;;4955160;28;20495;-90
2021/04/16 08:29:36;;;;;;;4.73;4.33;;;6.20;99.90;;;;;;5019194;28;20974;-90
2021/04/16 08:32:09;;;;;;;5.13;4.57;;;6.20;99.90;;;;;;5013824;28;20452;-92
2021/04/16 08:34:40;;;;;;;10.00;5.10;;;6.90;99.90;;;;;;5017048;28;20503;-92
2021/04/16 08:37:11;;;;;;;5.43;4.93;;;6.30;99.90;;;;;;5015781;28;20445;-90
2021/04/16 08:39:44;;;;;;;4.90;4.43;;;5.90;99.90;;;;;;5018858;28;20444;-91
2021/04/16 08:42:13;;;;;;;7.60;4.73;;;5.90;99.90;;;;;;5018709;28;20517;-91
2021/04/16 08:44:42;;;;;;;5.43;4.93;;;5.80;99.90;;;;;;5015951;28;20559;-91
2021/04/16 08:47:20;;;;;;;5.17;4.67;;;6.00;99.90;;;;;;5018504;28;20488;-90
2021/04/16 08:49:47;;;;;;;4.60;4.20;;;;;;;;;;5033330;28;20451;-88
2021/04/16 08:52:20;;;;;;;5.67;5.07;;;6.30;99.90;;;;;;5036381;28;20443;-86
2021/04/16 08:54:49;;;;;;;5.07;4.57;;;6.20;99.90;;;;;;5033427;28;20440;-87
2021/04/16 08:57:19;;;;;;;5.70;4.73;;;6.60;99.90;;;;;;5033449;28;20451;-86
2021/04/16 08:59:54;;;;;;;5.40;4.87;;;7.00;99.90;;;;;;5033471;28;20440;-87
2021/04/16 09:02:22;;;;;;;6.43;4.90;;;6.80;99.90;;;;;;5033251;28;20481;-86
2021/04/16 09:04:52;;;;;;;6.50;5.03;;;6.20;99.90;;;;;;5032034;28;20444;-85
2021/04/16 09:07:33;;;;;;;5.47;4.93;;;6.60;99.90;;;;;;5015409;28;20488;-87
2021/04/16 09:10:01;;;;;;;5.70;5.00;;;;;;;;;;5013996;28;20467;-90
2021/04/16 09:12:46;;;;;;;5.20;4.70;;;7.70;99.90;;;;;;5013808;28;20459;-88
2021/04/16 09:15:38;;;;;;;6.13;5.23;;;8.80;99.90;;;;;;5014359;28;20456;-87
2021/04/16 09:18:28;;;;;;;4.93;4.53;;;10.00;98.10;;;;;;5018420;28;20447;-87
2021/04/16 09:21:21;;;;;;;5.00;4.60;;;9.40;95.90;;;;;;5027471;28;20474;-88
2021/04/16 09:23:57;;;;;;;6.37;4.27;;;9.70;94.80;;;;;;5033677;28;20463;-88
2021/04/16 09:27:09;;;;;;;5.10;3.83;;;10.30;93.10;;;;;;5030319;28;20510;-88
2021/04/16 09:29:46;;;;;;;7.67;4.00;;;9.70;93.90;;;;;;4987149;28;20513;-88
2021/04/16 09:32:46;;;;;;;5.33;4.33;;;9.20;95.60;;;;;;5034318;28;20446;-86
2021/04/16 09:35:28;;;;;;;7.10;5.30;;;9.30;97.10;;;;;;5033445;28;20854;-87
2021/04/16 09:38:32;;;;;;;5.60;4.60;;;9.00;95.40;;;;;;5029326;28;20459;-88
2021/04/16 09:41:28;;;;;;;4.27;3.90;;;8.50;96.30;;;;;;5022848;28;20455;-89
2021/04/16 09:43:57;;;;;;;5.03;3.27;;;7.30;98.20;;;;;;5032391;28;20834;-90
2021/04/16 09:46:44;;;;;;;4.40;4.00;;;6.80;99.90;;;;;;5034018;28;20483;-90
2021/04/16 09:49:12;;;;;;;3.77;3.33;;;6.50;99.60;;;;;;5027279;28;20463;-89
2021/04/16 09:51:40;;;;;;;4.97;3.67;;;6.80;99.70;;;;;;5035502;28;20455;-89
2021/04/16 09:54:34;;;;;;;4.30;3.67;;;6.80;99.30;;;;;;5002985;28;20963;-89
2021/04/16 09:57:44;;;;;;;4.20;3.80;;;6.40;99.90;;;;;;5023310;28;20741;-88
2021/04/16 10:00:36;;;;;;;4.10;3.70;;;5.90;99.90;;;;;;5007860;28;20463;-90
2021/04/16 10:03:23;;;;;;;5.60;3.47;;;6.10;99.60;;;;;;5053112;28;20450;-89
2021/04/16 10:05:51;;;;;;;3.40;3.10;;;6.30;99.50;;;;;;5055467;28;20516;-90
2021/04/16 10:08:23;;;;;;;7.63;4.07;;;6.80;99.40;;;;;;5057377;28;20486;-87
2021/04/16 10:10:50;;;;;;;4.83;3.43;;;;;;;;;;5052431;28;20485;-88
2021/04/16 10:13:24;;;;;;;3.33;3.00;;;9.10;97.10;;;;;;5056710;28;20942;-88
2021/04/16 10:15:52;;;;;;;3.80;3.10;;;8.00;96.20;;;;;;5055652;28;20942;-90
2021/04/16 10:18:30;;;;;;;3.20;2.90;;;7.70;96.20;;;;;;5060625;28;20441;-89
2021/04/16 10:21:04;;;;;;;5.07;3.97;;;7.40;96.70;;;;;;5059400;28;20478;-90
2021/04/16 10:23:37;;;;;;;3.80;3.10;;;7.40;99.90;;;;;;5061997;28;20457;-90
2021/04/16 12:39:06;;;;;;;4.40;3.77;;;6.30;99.30;;;;;;5056920;28;20434;-90
2021/04/16 12:41:35;;;;;;;4.63;4.20;;;6.10;99.10;;;;;;5049496;28;20459;-90
2021/04/16 12:44:04;;;;;;;4.20;3.80;;;6.20;99.90;;;;;;5050508;28;20909;-92
2021/04/16 12:46:34;;;;;;;4.40;4.00;;;6.40;99.90;;;;;;5050181;28;20990;-91
2021/04/16 12:49:01;;;;;;;4.83;3.53;;;;;;;;;;5056244;28;20462;-90
2021/04/16 12:51:28;;;;;;;3.37;3.07;;;6.40;99.40;;;;;;5056638;28;20431;-90
2021/04/16 12:53:54;;;;;;;4.13;3.73;;;;;;;;;;5056515;28;21056;-91
2021/04/16 12:56:24;;;;;;;4.50;3.93;;;5.90;99.90;;;;;;5056217;28;20458;-91
2021/04/16 12:58:51;;;;;;;4.90;4.00;;;;;;;;;;5058277;28;20447;-92
2021/04/16 13:01:25;;;;;;;4.10;3.77;;;6.10;99.90;;;;;;5059175;28;20451;-91
2021/04/16 13:03:52;;;;;;;3.33;3.03;;;;;;;;;;5050602;28;20460;-91
2021/04/16 13:06:25;;;;;;;4.43;3.90;;;6.30;99.90;;;;;;5059260;28;20462;-91
2021/04/16 13:08:55;;;;;;;4.43;4.03;;;6.20;99.90;;;;;;5055956;28;20514;-90
2021/04/16 13:11:21;;;;;;;3.83;3.53;;;;;;;;;;5051314;28;20493;-91
2021/04/16 13:13:48;;;;;;;4.80;4.30;;;;;;;;;;5054981;28;20497;-90
2021/04/16 13:16:15;;;;;;;3.80;3.50;;;;;;;;;;5054459;28;20455;-91
2021/04/16 13:18:44;;;;;;;4.00;3.70;;;6.50;98.90;;;;;;5053755;28;20483;-90
2021/04/16 13:21:15;;;;;;;4.10;3.70;;;6.40;99.60;;;;;;5056286;28;20454;-93
2021/04/16 13:23:42;;;;;;;3.67;3.37;;;;;;;;;;5056355;28;20450;-90
2021/04/16 13:26:08;;;;;;;4.37;3.97;;;;;;;;;;5054051;28;20461;-90
2021/04/16 13:28:35;;;;;;;3.73;3.43;;;;;;;;;;5054575;28;20858;-91
2021/04/16 13:31:01;;;;;;;4.60;3.80;;;;;;;;;;5055957;28;20952;-92
2021/04/16 13:33:31;;;;;;;3.97;3.60;;;7.30;98.70;;;;;;5052158;28;20455;-91
2021/04/16 13:35:58;;;;;;;4.10;3.67;;;7.00;98.10;;;;;;5053738;28;20814;-90
2021/04/16 13:38:27;;;;;;;5.23;3.53;;;7.00;98.30;;;;;;5050288;28;20454;-89
2021/04/16 13:40:54;;;;;;;6.70;4.30;;;7.10;98.40;;;;;;5050290;28;20431;-91
2021/04/16 13:43:21;;;;;;;4.20;3.67;;;;;;;;;;5051408;28;20458;-89
2021/04/16 13:45:53;;;;;;;5.03;4.23;;;7.20;98.10;;;;;;5052623;28;20459;-90
2021/04/16 13:48:19;;;;;;;6.80;3.07;;;;;;;;;;5054274;28;20478;-91
2021/04/16 13:50:46;;;;;;;5.37;3.97;;;;;;;;;;5054283;28;20450;-91
2021/04/16 13:53:14;;;;;;;4.43;4.03;;;8.30;96.60;;;;;;5053794;28;20446;-91
2021/04/16 13:55:40;;;;;;;3.60;3.30;;;;;;;;;;5053762;28;20457;-89
2021/04/16 13:58:07;;;;;;;8.10;4.50;;;;;;;;;;5053514;28;20450;-89
2021/04/16 14:00:36;;;;;;;5.43;3.80;;;7.50;97.70;;;;;;5040680;28;20448;-90
2021/04/16 14:03:08;;;;;;;5.20;4.10;;;7.30;97.80;;;;;;5027914;28;20873;-91
2021/04/16 14:05:35;;;;;;;3.90;3.37;;;7.50;98.20;;;;;;5030418;28;20475;-92
2021/04/16 14:08:03;;;;;;;3.97;3.57;;;7.50;98.00;;;;;;5028980;28;20506;-89
2021/04/16 14:10:32;;;;;;;4.20;3.90;;;7.60;97.80;;;;;;5033147;28;20447;-89
2021/04/16 14:12:59;;;;;;;4.40;4.00;;;;;;;;;;5050812;28;20462;-89
2021/04/16 14:15:25;;;;;;;4.10;3.70;;;;;;;;;;5051885;28;20457;-90
2021/04/16 14:17:56;;;;;;;4.00;3.60;;;6.90;97.40;;;;;;5037339;28;20538;-89
2021/04/16 14:20:28;;;;;;;4.30;3.70;;;6.60;99.00;;;;;;5033125;28;20435;-89
2021/04/16 14:22:56;;;;;;;4.20;3.80;;;6.80;98.70;;;;;;5030262;28;20443;-91
2021/04/16 14:25:26;;;;;;;4.40;4.00;;;6.60;98.40;;;;;;5033269;28;20490;-89
2021/04/16 14:27:53;;;;;;;3.93;3.17;;;6.80;99.20;;;;;;5030491;28;20451;-90
2021/04/16 14:30:23;;;;;;;5.47;3.50;;;6.70;97.60;;;;;;5030436;28;20487;-90
2021/04/16 14:32:51;;;;;;;3.97;3.60;;;6.60;97.80;;;;;;5034016;28;20467;-91
2021/04/16 14:35:18;;;;;;;3.70;3.00;;;;;;;;;;5032538;28;20474;-90
2021/04/16 14:37:44;;;;;;;3.57;3.27;;;;;;;;;;5033942;28;20448;-91
2021/04/16 14:40:12;;;;;;;3.13;2.80;;;6.70;99.90;;;;;;5035087;28;20451;-91
2021/04/16 14:42:39;;;;;;;3.40;3.10;;;;;;;;;;5030736;28;20435;-92
2021/04/16 14:45:11;;;;;;;3.60;2.93;;;6.60;97.80;;;;;;5033799;28;20455;-91
2021/04/16 14:47:38;;;;;;;3.37;3.07;;;6.60;98.40;;;;;;5030825;28;20479;-92
2021/04/16 14:50:07;;;;;;;5.03;3.13;;;;;;;;;;5033768;28;20953;-94
2021/04/16 14:52:34;;;;;;;2.97;2.73;;;6.40;98.30;;;;;;5043737;28;20473;-92
2021/04/16 14:55:00;;;;;;;2.67;2.47;;;;;;;;;;5053613;28;20426;-92
2021/04/16 14:57:30;;;;;;;3.87;3.40;;;6.60;98.10;;;;;;5050401;28;20516;-92
2021/04/16 14:59:58;;;;;;;3.60;3.23;;;6.50;97.70;;;;;;5053130;28;20451;-92
2021/04/16 15:02:26;;;;;;;3.00;2.50;;;6.40;97.60;;;;;;5049256;28;20572;-92
2021/04/16 15:04:52;;;;;;;2.60;2.40;;;;;;;;;;5047954;28;20458;-90
2021/04/16 15:07:30;;;;;;;3.10;2.80;;;6.50;97.70;;;;;;5006666;28;20482;-91
2021/04/16 15:10:07;;;;;;;3.27;3.07;;;6.60;98.00;;;;;;5057849;28;20871;-91
2021/04/16 15:12:37;;;;;;;4.03;3.50;;;6.70;97.70;;;;;;5056929;28;20841;-89
2021/04/16 15:15:05;;;;;;;3.50;3.23;;;6.50;97.60;;;;;;5054013;28;20454;-88
2021/04/16 15:17:32;;;;;;;3.20;2.47;;;6.50;97.30;;;;;;5056841;28;20465;-92
2021/04/16 15:19:59;;;;;;;2.63;2.43;;;;;;;;;;5049146;28;20684;-91
2021/04/16 15:22:27;;;;;;;3.20;2.73;;;6.50;97.60;;;;;;5057117;28;20439;-91
2021/04/16 15:24:56;;;;;;;2.53;2.33;;;6.60;98.10;;;;;;5056556;28;20461;-90
2021/04/16 15:27:25;;;;;;;2.93;2.73;;;6.60;98.00;;;;;;5056405;28;20494;-92
2021/04/16 15:29:53;;;;;;;3.03;2.73;;;6.60;98.00;;;;;;5052127;28;20478;-90
2021/04/16 15:32:30;;;;;;;3.07;2.77;;;6.60;98.20;;;;;;5053282;28;20439;-92
2021/04/16 15:48:14;;;;;;;2.87;2.57;;;6.40;98.40;;;;;;5051784;28;20490;-87
2021/04/16 15:50:44;;;;;;;2.97;2.77;;;6.40;98.70;;;;;;5055420;28;20462;-89
2021/04/16 15:53:12;;;;;;;3.67;3.20;;;6.30;98.70;;;;;;5056316;28;20465;-88
2021/04/16 15:55:42;;;;;;;4.90;4.20;;;6.10;98.60;;;;;;5050056;28;20461;-91
2021/04/16 15:58:13;;;;;;;2.63;2.33;;;6.20;99.10;;;;;;5033837;28;20810;-89
2021/04/16 16:00:43;;;;;;;4.70;2.97;;;6.20;99.40;;;;;;5030450;28;20436;-89